sensor_id;sensor_type;location;lat;lon;timestamp;temperature;humidity
78767;SHT31;68092;51.982;5.680;2024-03-07T00:00:16;10.6;59.2
78767;SHT31;68092;51.982;5.680;2024-03-07T00:02:47;10.5;59.4
78767;SHT31;68092;51.982;5.680;2024-03-07T00:05:16;10.5;59.4
78767;SHT31;68092;51.982;5.680;2024-03-07T00:07:45;10.5;59.1
78767;SHT31;68092;51.982;5.680;2024-03-07T00:10:16;10.5;59.3
78767;SHT31;68092;51.982;5.680;2024-03-07T00:12:45;10.5;59.4
78767;SHT31;68092;51.982;5.680;2024-03-07T00:15:15;10.5;59.5
78767;SHT31;68092;51.982;5.680;2024-03-07T00:17:44;10.5;59.5
78767;SHT31;68092;51.982;5.680;2024-03-07T00:20:12;10.5;59.5
78767;SHT31;68092;51.982;5.680;2024-03-07T00:22:45;10.5;59.4
78767;SHT31;68092;51.982;5.680;2024-03-07T00:25:15;10.5;59.0
78767;SHT31;68092;51.982;5.680;2024-03-07T00:27:46;10.5;58.7
78767;SHT31;68092;51.982;5.680;2024-03-07T00:30:17;10.5;58.7
78767;SHT31;68092;51.982;5.680;2024-03-07T00:32:47;10.5;58.8
78767;SHT31;68092;51.982;5.680;2024-03-07T00:35:15;10.5;58.6
78767;SHT31;68092;51.982;5.680;2024-03-07T00:37:47;10.5;58.5
78767;SHT31;68092;51.982;5.680;2024-03-07T00:40:16;10.5;58.6
78767;SHT31;68092;51.982;5.680;2024-03-07T00:42:46;10.5;58.3
78767;SHT31;68092;51.982;5.680;2024-03-07T00:45:15;10.5;58.4
78767;SHT31;68092;51.982;5.680;2024-03-07T00:47:45;10.5;58.3
78767;SHT31;68092;51.982;5.680;2024-03-07T00:50:14;10.5;58.2
78767;SHT31;68092;51.982;5.680;2024-03-07T00:52:43;10.5;58.1
78767;SHT31;68092;51.982;5.680;2024-03-07T00:55:14;10.5;58.0
78767;SHT31;68092;51.982;5.680;2024-03-07T00:57:44;10.5;57.6
78767;SHT31;68092;51.982;5.680;2024-03-07T01:00:13;10.4;57.2
78767;SHT31;68092;51.982;5.680;2024-03-07T01:02:46;10.4;57.5
78767;SHT31;68092;51.982;5.680;2024-03-07T01:05:14;10.4;57.0
78767;SHT31;68092;51.982;5.680;2024-03-07T01:07:44;10.4;57.6
78767;SHT31;68092;51.982;5.680;2024-03-07T01:10:14;10.3;57.0
78767;SHT31;68092;51.982;5.680;2024-03-07T01:12:43;10.3;57.5
78767;SHT31;68092;51.982;5.680;2024-03-07T01:15:12;10.3;57.6
78767;SHT31;68092;51.982;5.680;2024-03-07T01:17:41;10.3;57.5
78767;SHT31;68092;51.982;5.680;2024-03-07T01:20:11;10.2;57.7
78767;SHT31;68092;51.982;5.680;2024-03-07T01:22:40;10.2;57.4
78767;SHT31;68092;51.982;5.680;2024-03-07T01:25:09;10.2;56.6
78767;SHT31;68092;51.982;5.680;2024-03-07T01:27:39;10.2;56.6
78767;SHT31;68092;51.982;5.680;2024-03-07T01:30:08;10.1;57.3
78767;SHT31;68092;51.982;5.680;2024-03-07T01:32:37;10.1;56.5
78767;SHT31;68092;51.982;5.680;2024-03-07T01:35:06;10.1;56.4
78767;SHT31;68092;51.982;5.680;2024-03-07T01:37:36;10.1;56.8
78767;SHT31;68092;51.982;5.680;2024-03-07T01:40:05;10.0;56.5
78767;SHT31;68092;51.982;5.680;2024-03-07T01:42:34;10.0;56.6
78767;SHT31;68092;51.982;5.680;2024-03-07T01:45:03;10.0;57.0
78767;SHT31;68092;51.982;5.680;2024-03-07T01:47:34;10.0;56.4
78767;SHT31;68092;51.982;5.680;2024-03-07T01:50:02;9.9;56.1
78767;SHT31;68092;51.982;5.680;2024-03-07T01:52:32;9.9;56.3
78767;SHT31;68092;51.982;5.680;2024-03-07T01:55:01;9.9;56.1
78767;SHT31;68092;51.982;5.680;2024-03-07T01:57:30;9.9;56.2
78767;SHT31;68092;51.982;5.680;2024-03-07T02:00:02;9.8;55.9
78767;SHT31;68092;51.982;5.680;2024-03-07T02:02:33;9.8;55.8
78767;SHT31;68092;51.982;5.680;2024-03-07T02:05:02;9.8;55.8
78767;SHT31;68092;51.982;5.680;2024-03-07T02:07:32;9.8;55.7
78767;SHT31;68092;51.982;5.680;2024-03-07T02:10:02;9.8;55.6
78767;SHT31;68092;51.982;5.680;2024-03-07T02:12:32;9.7;55.5
78767;SHT31;68092;51.982;5.680;2024-03-07T02:15:01;9.7;56.1
78767;SHT31;68092;51.982;5.680;2024-03-07T02:17:29;9.7;55.6
78767;SHT31;68092;51.982;5.680;2024-03-07T02:19:58;9.7;55.9
78767;SHT31;68092;51.982;5.680;2024-03-07T02:22:27;9.6;56.2
78767;SHT31;68092;51.982;5.680;2024-03-07T02:24:55;9.6;56.2
78767;SHT31;68092;51.982;5.680;2024-03-07T02:27:24;9.6;56.3
78767;SHT31;68092;51.982;5.680;2024-03-07T02:29:52;9.5;56.7
78767;SHT31;68092;51.982;5.680;2024-03-07T02:32:21;9.5;56.7
78767;SHT31;68092;51.982;5.680;2024-03-07T02:34:49;9.5;57.5
78767;SHT31;68092;51.982;5.680;2024-03-07T02:37:19;9.4;58.0
78767;SHT31;68092;51.982;5.680;2024-03-07T02:39:47;9.4;58.6
78767;SHT31;68092;51.982;5.680;2024-03-07T02:42:17;9.4;58.8
78767;SHT31;68092;51.982;5.680;2024-03-07T02:44:45;9.4;59.0
78767;SHT31;68092;51.982;5.680;2024-03-07T02:47:14;9.4;59.2
78767;SHT31;68092;51.982;5.680;2024-03-07T02:49:44;9.4;59.2
78767;SHT31;68092;51.982;5.680;2024-03-07T02:52:12;9.4;59.2
78767;SHT31;68092;51.982;5.680;2024-03-07T02:54:41;9.4;59.0
78767;SHT31;68092;51.982;5.680;2024-03-07T02:57:09;9.4;58.8
78767;SHT31;68092;51.982;5.680;2024-03-07T02:59:38;9.4;58.9
78767;SHT31;68092;51.982;5.680;2024-03-07T03:02:07;9.4;58.4
78767;SHT31;68092;51.982;5.680;2024-03-07T03:04:36;9.4;58.3
78767;SHT31;68092;51.982;5.680;2024-03-07T03:07:04;9.4;58.0
78767;SHT31;68092;51.982;5.680;2024-03-07T03:09:33;9.4;58.4
78767;SHT31;68092;51.982;5.680;2024-03-07T03:12:06;9.4;58.3
78767;SHT31;68092;51.982;5.680;2024-03-07T03:14:35;9.4;58.2
78767;SHT31;68092;51.982;5.680;2024-03-07T03:17:04;9.4;58.0
78767;SHT31;68092;51.982;5.680;2024-03-07T03:19:36;9.4;57.9
78767;SHT31;68092;51.982;5.680;2024-03-07T03:22:05;9.4;58.1
78767;SHT31;68092;51.982;5.680;2024-03-07T03:24:34;9.4;58.3
78767;SHT31;68092;51.982;5.680;2024-03-07T03:27:03;9.4;58.3
78767;SHT31;68092;51.982;5.680;2024-03-07T03:29:31;9.4;57.6
78767;SHT31;68092;51.982;5.680;2024-03-07T03:32:02;9.4;57.5
78767;SHT31;68092;51.982;5.680;2024-03-07T03:34:31;9.4;57.7
78767;SHT31;68092;51.982;5.680;2024-03-07T03:37:00;9.4;57.2
78767;SHT31;68092;51.982;5.680;2024-03-07T03:39:28;9.4;56.9
78767;SHT31;68092;51.982;5.680;2024-03-07T03:41:57;9.4;56.9
78767;SHT31;68092;51.982;5.680;2024-03-07T03:44:25;9.4;57.3
78767;SHT31;68092;51.982;5.680;2024-03-07T03:46:54;9.4;58.1
78767;SHT31;68092;51.982;5.680;2024-03-07T03:49:22;9.3;58.3
78767;SHT31;68092;51.982;5.680;2024-03-07T03:51:51;9.3;58.8
78767;SHT31;68092;51.982;5.680;2024-03-07T03:54:21;9.3;59.3
78767;SHT31;68092;51.982;5.680;2024-03-07T03:56:49;9.3;59.5
78767;SHT31;68092;51.982;5.680;2024-03-07T03:59:18;9.3;59.7
78767;SHT31;68092;51.982;5.680;2024-03-07T04:01:46;9.2;59.9
78767;SHT31;68092;51.982;5.680;2024-03-07T04:04:16;9.2;60.2
78767;SHT31;68092;51.982;5.680;2024-03-07T04:06:44;9.2;60.0
78767;SHT31;68092;51.982;5.680;2024-03-07T04:09:13;9.2;60.1
78767;SHT31;68092;51.982;5.680;2024-03-07T04:11:44;9.2;60.2
78767;SHT31;68092;51.982;5.680;2024-03-07T04:14:13;9.1;60.4
78767;SHT31;68092;51.982;5.680;2024-03-07T04:16:41;9.1;60.4
78767;SHT31;68092;51.982;5.680;2024-03-07T04:19:11;9.1;60.4
78767;SHT31;68092;51.982;5.680;2024-03-07T04:21:40;9.1;60.5
78767;SHT31;68092;51.982;5.680;2024-03-07T04:24:08;9.1;60.5
78767;SHT31;68092;51.982;5.680;2024-03-07T04:26:38;9.1;60.3
78767;SHT31;68092;51.982;5.680;2024-03-07T04:29:08;9.1;60.4
78767;SHT31;68092;51.982;5.680;2024-03-07T04:31:38;9.0;60.4
78767;SHT31;68092;51.982;5.680;2024-03-07T04:34:06;9.0;60.3
78767;SHT31;68092;51.982;5.680;2024-03-07T04:36:36;9.0;60.5
78767;SHT31;68092;51.982;5.680;2024-03-07T04:39:06;9.0;60.5
78767;SHT31;68092;51.982;5.680;2024-03-07T04:41:40;9.0;60.5
78767;SHT31;68092;51.982;5.680;2024-03-07T04:44:08;9.0;60.5
78767;SHT31;68092;51.982;5.680;2024-03-07T04:46:37;9.0;60.6
78767;SHT31;68092;51.982;5.680;2024-03-07T04:49:08;9.0;60.5
78767;SHT31;68092;51.982;5.680;2024-03-07T04:51:37;9.0;60.4
78767;SHT31;68092;51.982;5.680;2024-03-07T04:54:06;9.0;60.3
78767;SHT31;68092;51.982;5.680;2024-03-07T04:56:36;9.0;60.2
78767;SHT31;68092;51.982;5.680;2024-03-07T04:59:05;9.0;60.4
78767;SHT31;68092;51.982;5.680;2024-03-07T05:01:33;8.9;60.4
78767;SHT31;68092;51.982;5.680;2024-03-07T05:04:02;8.9;60.4
78767;SHT31;68092;51.982;5.680;2024-03-07T05:06:31;8.9;60.2
78767;SHT31;68092;51.982;5.680;2024-03-07T05:09:01;8.9;60.3
78767;SHT31;68092;51.982;5.680;2024-03-07T05:11:32;9.0;60.1
78767;SHT31;68092;51.982;5.680;2024-03-07T05:14:02;9.0;60.0
78767;SHT31;68092;51.982;5.680;2024-03-07T05:16:31;8.9;59.9
78767;SHT31;68092;51.982;5.680;2024-03-07T05:19:00;8.9;60.1
78767;SHT31;68092;51.982;5.680;2024-03-07T05:21:30;8.9;60.0
78767;SHT31;68092;51.982;5.680;2024-03-07T05:24:05;8.9;60.0
78767;SHT31;68092;51.982;5.680;2024-03-07T05:26:34;9.0;59.9
78767;SHT31;68092;51.982;5.680;2024-03-07T05:29:05;9.0;59.6
78767;SHT31;68092;51.982;5.680;2024-03-07T05:31:36;9.0;59.6
78767;SHT31;68092;51.982;5.680;2024-03-07T05:34:06;9.0;59.4
78767;SHT31;68092;51.982;5.680;2024-03-07T05:36:36;9.0;59.3
78767;SHT31;68092;51.982;5.680;2024-03-07T05:39:10;9.0;59.3
78767;SHT31;68092;51.982;5.680;2024-03-07T05:41:40;9.0;59.2
78767;SHT31;68092;51.982;5.680;2024-03-07T05:44:09;9.0;58.9
78767;SHT31;68092;51.982;5.680;2024-03-07T05:46:38;9.0;58.7
78767;SHT31;68092;51.982;5.680;2024-03-07T05:49:14;9.0;58.5
78767;SHT31;68092;51.982;5.680;2024-03-07T05:51:43;9.0;58.7
78767;SHT31;68092;51.982;5.680;2024-03-07T05:54:12;9.0;58.4
78767;SHT31;68092;51.982;5.680;2024-03-07T05:56:41;9.0;58.6
78767;SHT31;68092;51.982;5.680;2024-03-07T05:59:10;9.0;58.5
78767;SHT31;68092;51.982;5.680;2024-03-07T06:01:39;9.0;58.5
78767;SHT31;68092;51.982;5.680;2024-03-07T06:04:11;9.0;58.5
78767;SHT31;68092;51.982;5.680;2024-03-07T06:06:41;9.0;58.3
78767;SHT31;68092;51.982;5.680;2024-03-07T06:09:10;9.0;58.4
78767;SHT31;68092;51.982;5.680;2024-03-07T06:11:41;9.0;58.2
78767;SHT31;68092;51.982;5.680;2024-03-07T06:14:10;9.0;58.5
78767;SHT31;68092;51.982;5.680;2024-03-07T06:16:42;8.9;58.5
78767;SHT31;68092;51.982;5.680;2024-03-07T06:19:11;8.9;58.5
78767;SHT31;68092;51.982;5.680;2024-03-07T06:21:40;8.9;58.4
78767;SHT31;68092;51.982;5.680;2024-03-07T06:24:09;8.9;58.4
78767;SHT31;68092;51.982;5.680;2024-03-07T06:26:43;8.9;58.5
78767;SHT31;68092;51.982;5.680;2024-03-07T06:29:19;8.9;58.5
78767;SHT31;68092;51.982;5.680;2024-03-07T06:31:51;8.9;58.5
78767;SHT31;68092;51.982;5.680;2024-03-07T06:34:20;8.8;58.4
78767;SHT31;68092;51.982;5.680;2024-03-07T06:36:48;8.8;58.5
78767;SHT31;68092;51.982;5.680;2024-03-07T06:39:18;8.8;58.6
78767;SHT31;68092;51.982;5.680;2024-03-07T06:41:49;8.8;58.6
78767;SHT31;68092;51.982;5.680;2024-03-07T06:44:17;8.8;58.7
78767;SHT31;68092;51.982;5.680;2024-03-07T06:46:49;8.8;58.7
78767;SHT31;68092;51.982;5.680;2024-03-07T06:49:18;8.7;58.8
78767;SHT31;68092;51.982;5.680;2024-03-07T06:51:49;8.7;58.9
78767;SHT31;68092;51.982;5.680;2024-03-07T06:54:22;8.7;59.0
78767;SHT31;68092;51.982;5.680;2024-03-07T06:56:51;8.7;59.1
78767;SHT31;68092;51.982;5.680;2024-03-07T06:59:19;8.6;59.2
78767;SHT31;68092;51.982;5.680;2024-03-07T07:01:48;8.6;59.4
78767;SHT31;68092;51.982;5.680;2024-03-07T07:04:17;8.6;59.5
78767;SHT31;68092;51.982;5.680;2024-03-07T07:06:46;8.6;59.6
78767;SHT31;68092;51.982;5.680;2024-03-07T07:09:14;8.6;59.7
78767;SHT31;68092;51.982;5.680;2024-03-07T07:11:45;8.5;59.9
78767;SHT31;68092;51.982;5.680;2024-03-07T07:14:14;8.5;60.1
78767;SHT31;68092;51.982;5.680;2024-03-07T07:16:45;8.5;60.0
78767;SHT31;68092;51.982;5.680;2024-03-07T07:19:14;8.5;60.4
78767;SHT31;68092;51.982;5.680;2024-03-07T07:21:43;8.5;60.5
78767;SHT31;68092;51.982;5.680;2024-03-07T07:24:11;8.4;60.5
78767;SHT31;68092;51.982;5.680;2024-03-07T07:26:40;8.4;60.9
78767;SHT31;68092;51.982;5.680;2024-03-07T07:29:10;8.4;60.9
78767;SHT31;68092;51.982;5.680;2024-03-07T07:31:39;8.4;60.9
78767;SHT31;68092;51.982;5.680;2024-03-07T07:34:08;8.4;60.9
78767;SHT31;68092;51.982;5.680;2024-03-07T07:36:39;8.5;61.0
78767;SHT31;68092;51.982;5.680;2024-03-07T07:39:09;8.5;61.0
78767;SHT31;68092;51.982;5.680;2024-03-07T07:41:43;8.5;61.5
78767;SHT31;68092;51.982;5.680;2024-03-07T07:44:11;8.5;61.5
78767;SHT31;68092;51.982;5.680;2024-03-07T07:46:40;8.5;61.4
78767;SHT31;68092;51.982;5.680;2024-03-07T07:49:10;8.5;61.5
78767;SHT31;68092;51.982;5.680;2024-03-07T07:51:39;8.6;61.3
78767;SHT31;68092;51.982;5.680;2024-03-07T07:54:08;8.6;61.0
78767;SHT31;68092;51.982;5.680;2024-03-07T07:56:37;8.6;61.3
78767;SHT31;68092;51.982;5.680;2024-03-07T07:59:06;8.6;61.4
78767;SHT31;68092;51.982;5.680;2024-03-07T08:01:36;8.6;61.5
78767;SHT31;68092;51.982;5.680;2024-03-07T08:04:05;8.6;61.7
78767;SHT31;68092;51.982;5.680;2024-03-07T08:06:38;8.6;62.0
78767;SHT31;68092;51.982;5.680;2024-03-07T08:09:07;8.7;61.5
78767;SHT31;68092;51.982;5.680;2024-03-07T08:11:36;8.7;61.8
78767;SHT31;68092;51.982;5.680;2024-03-07T08:14:05;8.8;61.3
78767;SHT31;68092;51.982;5.680;2024-03-07T08:16:36;8.8;61.3
78767;SHT31;68092;51.982;5.680;2024-03-07T08:19:05;8.8;61.3
78767;SHT31;68092;51.982;5.680;2024-03-07T08:21:35;8.9;61.5
78767;SHT31;68092;51.982;5.680;2024-03-07T08:24:04;8.9;61.2
78767;SHT31;68092;51.982;5.680;2024-03-07T08:26:37;8.9;60.9
78767;SHT31;68092;51.982;5.680;2024-03-07T08:29:10;9.0;61.0
78767;SHT31;68092;51.982;5.680;2024-03-07T08:31:40;9.0;60.7
78767;SHT31;68092;51.982;5.680;2024-03-07T08:34:10;9.0;61.4
78767;SHT31;68092;51.982;5.680;2024-03-07T08:36:39;9.1;61.2
78767;SHT31;68092;51.982;5.680;2024-03-07T08:39:08;9.1;61.5
78767;SHT31;68092;51.982;5.680;2024-03-07T08:41:37;9.1;61.2
78767;SHT31;68092;51.982;5.680;2024-03-07T08:44:07;9.2;61.2
78767;SHT31;68092;51.982;5.680;2024-03-07T08:46:37;9.3;60.7
78767;SHT31;68092;51.982;5.680;2024-03-07T08:49:05;9.3;60.1
78767;SHT31;68092;51.982;5.680;2024-03-07T08:51:34;9.4;60.2
78767;SHT31;68092;51.982;5.680;2024-03-07T08:54:03;9.5;60.2
78767;SHT31;68092;51.982;5.680;2024-03-07T08:56:31;9.5;60.4
78767;SHT31;68092;51.982;5.680;2024-03-07T08:59:00;9.6;60.5
78767;SHT31;68092;51.982;5.680;2024-03-07T09:01:29;9.6;60.1
78767;SHT31;68092;51.982;5.680;2024-03-07T09:03:57;9.7;59.9
78767;SHT31;68092;51.982;5.680;2024-03-07T09:06:26;9.7;59.5
78767;SHT31;68092;51.982;5.680;2024-03-07T09:08:55;9.8;59.1
78767;SHT31;68092;51.982;5.680;2024-03-07T09:11:24;9.8;59.0
78767;SHT31;68092;51.982;5.680;2024-03-07T09:13:57;9.9;59.2
78767;SHT31;68092;51.982;5.680;2024-03-07T09:16:25;10.0;59.3
78767;SHT31;68092;51.982;5.680;2024-03-07T09:18:54;10.0;59.2
78767;SHT31;68092;51.982;5.680;2024-03-07T09:21:22;10.0;58.9
78767;SHT31;68092;51.982;5.680;2024-03-07T09:23:51;10.1;59.2
78767;SHT31;68092;51.982;5.680;2024-03-07T09:26:20;10.1;58.8
78767;SHT31;68092;51.982;5.680;2024-03-07T09:28:49;10.2;59.1
78767;SHT31;68092;51.982;5.680;2024-03-07T09:31:17;10.3;58.6
78767;SHT31;68092;51.982;5.680;2024-03-07T09:33:47;10.3;57.3
78767;SHT31;68092;51.982;5.680;2024-03-07T09:36:17;10.4;56.4
78767;SHT31;68092;51.982;5.680;2024-03-07T09:38:47;10.4;56.3
78767;SHT31;68092;51.982;5.680;2024-03-07T09:41:16;10.4;56.4
78767;SHT31;68092;51.982;5.680;2024-03-07T09:43:48;10.5;55.8
78767;SHT31;68092;51.982;5.680;2024-03-07T09:46:23;10.5;55.1
78767;SHT31;68092;51.982;5.680;2024-03-07T09:48:53;10.6;54.7
78767;SHT31;68092;51.982;5.680;2024-03-07T09:51:25;10.6;54.9
78767;SHT31;68092;51.982;5.680;2024-03-07T09:53:57;10.7;54.0
78767;SHT31;68092;51.982;5.680;2024-03-07T09:56:28;10.8;53.8
78767;SHT31;68092;51.982;5.680;2024-03-07T09:58:58;10.8;53.5
78767;SHT31;68092;51.982;5.680;2024-03-07T10:01:32;10.8;54.2
78767;SHT31;68092;51.982;5.680;2024-03-07T10:04:05;10.9;53.5
78767;SHT31;68092;51.982;5.680;2024-03-07T10:06:38;10.9;52.7
78767;SHT31;68092;51.982;5.680;2024-03-07T10:09:07;11.0;53.4
78767;SHT31;68092;51.982;5.680;2024-03-07T10:11:38;11.0;53.9
78767;SHT31;68092;51.982;5.680;2024-03-07T10:14:09;11.1;52.4
78767;SHT31;68092;51.982;5.680;2024-03-07T10:16:39;11.1;51.8
78767;SHT31;68092;51.982;5.680;2024-03-07T10:19:08;11.1;51.8
78767;SHT31;68092;51.982;5.680;2024-03-07T10:21:37;11.2;50.9
78767;SHT31;68092;51.982;5.680;2024-03-07T10:24:07;11.2;52.4
78767;SHT31;68092;51.982;5.680;2024-03-07T10:26:39;11.2;51.6
78767;SHT31;68092;51.982;5.680;2024-03-07T10:29:10;11.3;51.3
78767;SHT31;68092;51.982;5.680;2024-03-07T10:31:38;11.3;51.7
78767;SHT31;68092;51.982;5.680;2024-03-07T10:34:07;11.3;50.2
78767;SHT31;68092;51.982;5.680;2024-03-07T10:36:36;11.4;50.5
78767;SHT31;68092;51.982;5.680;2024-03-07T10:39:06;11.4;50.8
78767;SHT31;68092;51.982;5.680;2024-03-07T10:41:45;11.4;50.5
78767;SHT31;68092;51.982;5.680;2024-03-07T10:44:19;11.5;51.0
78767;SHT31;68092;51.982;5.680;2024-03-07T10:46:52;11.5;51.4
78767;SHT31;68092;51.982;5.680;2024-03-07T10:49:22;11.5;51.1
78767;SHT31;68092;51.982;5.680;2024-03-07T10:52:06;11.5;50.6
78767;SHT31;68092;51.982;5.680;2024-03-07T10:54:46;11.6;50.3
78767;SHT31;68092;51.982;5.680;2024-03-07T10:57:23;11.6;50.7
78767;SHT31;68092;51.982;5.680;2024-03-07T11:00:02;11.6;50.9
78767;SHT31;68092;51.982;5.680;2024-03-07T11:02:46;11.6;51.5
78767;SHT31;68092;51.982;5.680;2024-03-07T11:05:16;11.7;50.9
78767;SHT31;68092;51.982;5.680;2024-03-07T11:07:45;11.7;51.3
78767;SHT31;68092;51.982;5.680;2024-03-07T11:10:16;11.7;50.9
78767;SHT31;68092;51.982;5.680;2024-03-07T11:12:48;11.7;50.9
78767;SHT31;68092;51.982;5.680;2024-03-07T11:15:21;11.7;50.3
78767;SHT31;68092;51.982;5.680;2024-03-07T11:17:53;11.7;50.4
78767;SHT31;68092;51.982;5.680;2024-03-07T11:20:24;11.8;49.8
78767;SHT31;68092;51.982;5.680;2024-03-07T11:22:53;11.8;51.0
78767;SHT31;68092;51.982;5.680;2024-03-07T11:25:23;11.8;50.3
78767;SHT31;68092;51.982;5.680;2024-03-07T11:27:55;11.8;49.8
78767;SHT31;68092;51.982;5.680;2024-03-07T11:30:25;11.8;50.8
78767;SHT31;68092;51.982;5.680;2024-03-07T11:32:54;11.8;50.7
78767;SHT31;68092;51.982;5.680;2024-03-07T11:35:33;11.8;51.2
78767;SHT31;68092;51.982;5.680;2024-03-07T11:38:06;11.8;50.7
78767;SHT31;68092;51.982;5.680;2024-03-07T11:40:46;11.8;50.5
78767;SHT31;68092;51.982;5.680;2024-03-07T11:43:18;11.9;50.5
78767;SHT31;68092;51.982;5.680;2024-03-07T11:45:47;11.9;50.1
78767;SHT31;68092;51.982;5.680;2024-03-07T11:48:18;11.9;50.7
78767;SHT31;68092;51.982;5.680;2024-03-07T11:50:48;11.9;50.7
78767;SHT31;68092;51.982;5.680;2024-03-07T11:53:18;11.9;50.3
78767;SHT31;68092;51.982;5.680;2024-03-07T11:55:48;11.9;50.0
78767;SHT31;68092;51.982;5.680;2024-03-07T11:58:19;12.0;48.7
78767;SHT31;68092;51.982;5.680;2024-03-07T12:00:50;12.0;49.0
78767;SHT31;68092;51.982;5.680;2024-03-07T12:03:20;12.0;49.5
78767;SHT31;68092;51.982;5.680;2024-03-07T12:05:52;12.0;48.7
78767;SHT31;68092;51.982;5.680;2024-03-07T12:08:22;12.1;49.0
78767;SHT31;68092;51.982;5.680;2024-03-07T12:10:52;12.1;49.0
78767;SHT31;68092;51.982;5.680;2024-03-07T12:13:23;12.1;49.5
78767;SHT31;68092;51.982;5.680;2024-03-07T12:15:54;12.1;49.9
78767;SHT31;68092;51.982;5.680;2024-03-07T12:18:25;12.1;50.6
78767;SHT31;68092;51.982;5.680;2024-03-07T12:20:54;12.2;50.2
78767;SHT31;68092;51.982;5.680;2024-03-07T12:23:25;12.2;50.1
78767;SHT31;68092;51.982;5.680;2024-03-07T12:26:01;12.2;49.8
78767;SHT31;68092;51.982;5.680;2024-03-07T12:28:32;12.3;50.2
78767;SHT31;68092;51.982;5.680;2024-03-07T12:31:05;12.3;50.3
78767;SHT31;68092;51.982;5.680;2024-03-07T12:33:39;12.3;49.9
78767;SHT31;68092;51.982;5.680;2024-03-07T12:36:15;12.4;49.8
78767;SHT31;68092;51.982;5.680;2024-03-07T12:38:44;12.4;49.1
78767;SHT31;68092;51.982;5.680;2024-03-07T12:41:14;12.4;49.4
78767;SHT31;68092;51.982;5.680;2024-03-07T12:43:43;12.4;49.5
78767;SHT31;68092;51.982;5.680;2024-03-07T12:46:13;12.4;50.3
78767;SHT31;68092;51.982;5.680;2024-03-07T12:48:42;12.5;50.1
78767;SHT31;68092;51.982;5.680;2024-03-07T12:51:11;12.5;49.7
78767;SHT31;68092;51.982;5.680;2024-03-07T12:53:43;12.5;49.8
78767;SHT31;68092;51.982;5.680;2024-03-07T12:56:12;12.6;49.8
78767;SHT31;68092;51.982;5.680;2024-03-07T12:58:44;12.6;50.3
78767;SHT31;68092;51.982;5.680;2024-03-07T13:01:13;12.6;50.5
78767;SHT31;68092;51.982;5.680;2024-03-07T13:03:44;12.6;50.4
78767;SHT31;68092;51.982;5.680;2024-03-07T13:06:14;12.6;50.2
78767;SHT31;68092;51.982;5.680;2024-03-07T13:08:45;12.7;50.2
78767;SHT31;68092;51.982;5.680;2024-03-07T13:11:15;12.7;49.4
78767;SHT31;68092;51.982;5.680;2024-03-07T13:13:46;12.7;50.5
78767;SHT31;68092;51.982;5.680;2024-03-07T13:16:15;12.6;50.6
78767;SHT31;68092;51.982;5.680;2024-03-07T13:18:43;12.6;50.6
78767;SHT31;68092;51.982;5.680;2024-03-07T13:21:12;12.6;50.7
78767;SHT31;68092;51.982;5.680;2024-03-07T13:23:43;12.6;51.2
78767;SHT31;68092;51.982;5.680;2024-03-07T13:26:12;12.6;50.4
78767;SHT31;68092;51.982;5.680;2024-03-07T13:28:43;12.6;50.4
78767;SHT31;68092;51.982;5.680;2024-03-07T13:31:13;12.6;51.3
78767;SHT31;68092;51.982;5.680;2024-03-07T13:33:44;12.6;51.3
78767;SHT31;68092;51.982;5.680;2024-03-07T13:36:13;12.6;51.0
78767;SHT31;68092;51.982;5.680;2024-03-07T13:38:47;12.6;51.9
78767;SHT31;68092;51.982;5.680;2024-03-07T13:41:18;12.6;52.6
78767;SHT31;68092;51.982;5.680;2024-03-07T13:43:47;12.6;53.2
78767;SHT31;68092;51.982;5.680;2024-03-07T13:46:17;12.6;52.3
78767;SHT31;68092;51.982;5.680;2024-03-07T13:48:51;12.6;52.6
78767;SHT31;68092;51.982;5.680;2024-03-07T13:51:22;12.6;52.4
78767;SHT31;68092;51.982;5.680;2024-03-07T13:53:52;12.6;52.5
78767;SHT31;68092;51.982;5.680;2024-03-07T13:56:49;12.6;52.7
78767;SHT31;68092;51.982;5.680;2024-03-07T13:59:33;12.6;53.0
78767;SHT31;68092;51.982;5.680;2024-03-07T14:02:25;12.6;52.7
78767;SHT31;68092;51.982;5.680;2024-03-07T14:05:27;12.6;52.5
78767;SHT31;68092;51.982;5.680;2024-03-07T14:08:32;12.6;52.6
78767;SHT31;68092;51.982;5.680;2024-03-07T14:11:41;12.6;52.2
78767;SHT31;68092;51.982;5.680;2024-03-07T14:14:44;12.6;51.8
78767;SHT31;68092;51.982;5.680;2024-03-07T14:17:55;12.6;52.3
78767;SHT31;68092;51.982;5.680;2024-03-07T14:20:46;12.6;52.6
78767;SHT31;68092;51.982;5.680;2024-03-07T14:23:41;12.6;52.5
78767;SHT31;68092;51.982;5.680;2024-03-07T14:26:45;12.6;52.4
78767;SHT31;68092;51.982;5.680;2024-03-07T14:29:24;12.6;52.5
78767;SHT31;68092;51.982;5.680;2024-03-07T14:31:56;12.5;52.8
78767;SHT31;68092;51.982;5.680;2024-03-07T14:34:36;12.5;52.8
78767;SHT31;68092;51.982;5.680;2024-03-07T14:37:23;12.5;52.9
78767;SHT31;68092;51.982;5.680;2024-03-07T14:40:05;12.5;53.0
78767;SHT31;68092;51.982;5.680;2024-03-07T14:42:33;12.5;53.4
78767;SHT31;68092;51.982;5.680;2024-03-07T14:45:03;12.5;52.8
78767;SHT31;68092;51.982;5.680;2024-03-07T14:47:34;12.5;52.8
78767;SHT31;68092;51.982;5.680;2024-03-07T14:50:03;12.5;52.6
78767;SHT31;68092;51.982;5.680;2024-03-07T14:52:37;12.5;52.4
78767;SHT31;68092;51.982;5.680;2024-03-07T14:55:08;12.5;52.4
78767;SHT31;68092;51.982;5.680;2024-03-07T14:57:42;12.5;52.0
78767;SHT31;68092;51.982;5.680;2024-03-07T15:00:13;12.5;52.2
78767;SHT31;68092;51.982;5.680;2024-03-07T15:02:47;12.5;52.6
78767;SHT31;68092;51.982;5.680;2024-03-07T15:05:17;12.5;53.2
78767;SHT31;68092;51.982;5.680;2024-03-07T15:07:46;12.5;52.7
78767;SHT31;68092;51.982;5.680;2024-03-07T15:10:18;12.5;52.7
78767;SHT31;68092;51.982;5.680;2024-03-07T15:12:48;12.5;53.0
78767;SHT31;68092;51.982;5.680;2024-03-07T15:15:17;12.5;51.9
78767;SHT31;68092;51.982;5.680;2024-03-07T15:17:46;12.5;51.8
78767;SHT31;68092;51.982;5.680;2024-03-07T15:20:15;12.5;50.9
78767;SHT31;68092;51.982;5.680;2024-03-07T15:22:48;12.5;51.3
78767;SHT31;68092;51.982;5.680;2024-03-07T15:25:17;12.5;52.0
78767;SHT31;68092;51.982;5.680;2024-03-07T15:27:46;12.5;51.3
78767;SHT31;68092;51.982;5.680;2024-03-07T15:30:17;12.5;50.9
78767;SHT31;68092;51.982;5.680;2024-03-07T15:32:51;12.5;51.0
78767;SHT31;68092;51.982;5.680;2024-03-07T15:35:19;12.5;51.7
78767;SHT31;68092;51.982;5.680;2024-03-07T15:37:50;12.4;51.5
78767;SHT31;68092;51.982;5.680;2024-03-07T15:40:20;12.4;51.7
78767;SHT31;68092;51.982;5.680;2024-03-07T15:42:51;12.4;52.5
78767;SHT31;68092;51.982;5.680;2024-03-07T15:45:21;12.4;52.1
78767;SHT31;68092;51.982;5.680;2024-03-07T15:47:52;12.4;52.5
78767;SHT31;68092;51.982;5.680;2024-03-07T15:50:22;12.4;53.0
78767;SHT31;68092;51.982;5.680;2024-03-07T15:52:58;12.4;52.9
78767;SHT31;68092;51.982;5.680;2024-03-07T15:55:27;12.4;52.9
78767;SHT31;68092;51.982;5.680;2024-03-07T15:58:00;12.4;52.7
78767;SHT31;68092;51.982;5.680;2024-03-07T16:00:31;12.4;52.7
78767;SHT31;68092;51.982;5.680;2024-03-07T16:03:03;12.4;52.4
78767;SHT31;68092;51.982;5.680;2024-03-07T16:05:35;12.4;52.2
78767;SHT31;68092;51.982;5.680;2024-03-07T16:08:07;12.4;52.2
78767;SHT31;68092;51.982;5.680;2024-03-07T16:10:38;12.4;52.3
78767;SHT31;68092;51.982;5.680;2024-03-07T16:13:09;12.4;52.5
78767;SHT31;68092;51.982;5.680;2024-03-07T16:15:42;12.4;52.3
78767;SHT31;68092;51.982;5.680;2024-03-07T16:18:12;12.4;52.7
78767;SHT31;68092;51.982;5.680;2024-03-07T16:20:43;12.4;52.6
78767;SHT31;68092;51.982;5.680;2024-03-07T16:23:14;12.4;52.3
78767;SHT31;68092;51.982;5.680;2024-03-07T16:25:45;12.4;52.4
78767;SHT31;68092;51.982;5.680;2024-03-07T16:28:15;12.4;52.6
78767;SHT31;68092;51.982;5.680;2024-03-07T16:30:48;12.4;52.5
78767;SHT31;68092;51.982;5.680;2024-03-07T16:33:16;12.4;52.3